Time;durP1;ratioP1;P1;durP2;ratioP2;P2;SDS_P1;SDS_P2;PMS_P1;PMS_P2;Temp;Humidity;BMP_temperature;BMP_pressure;BME280_temperature;BME280_humidity;BME280_pressure;Samples;Min_cycle;Max_cycle;Signal;HPM_P1;HPM_P2
2021/07/23 00:00:32;;;;;;;;;13.75;11.50;;;;;29.25;36.39;100978.38;5043912;28;45558;-78
2021/07/23 00:02:57;;;;;;;;;16.50;16.00;;;;;29.25;36.40;100984.59;5061978;28;45341;-79
2021/07/23 00:05:23;;;;;;;;;13.75;13.75;;;;;29.17;37.31;100967.25;5060708;28;45426;-79
2021/07/23 00:07:48;;;;;;;;;13.75;13.75;;;;;29.14;36.94;100976.38;5061452;28;48636;-79
2021/07/23 00:10:13;;;;;;;;;14.50;13.75;;;;;29.11;37.25;100963.16;5077405;28;51224;-79
2021/07/23 00:12:39;;;;;;;;;12.75;11.50;;;;;29.18;37.81;100967.13;5060622;28;45484;-79
2021/07/23 00:15:05;;;;;;;;;15.00;13.50;;;;;29.18;36.82;100966.28;5077436;28;55237;-79
2021/07/23 00:17:30;;;;;;;;;14.75;13.50;;;;;29.17;37.79;100965.41;5061140;28;45362;-79
2021/07/23 00:19:55;;;;;;;;;15.25;14.00;;;;;29.15;36.64;100955.72;5060677;28;45227;-79
2021/07/23 00:22:21;;;;;;;;;15.00;13.75;;;;;29.11;37.37;100952.41;5060552;28;47672;-78
2021/07/23 00:24:46;;;;;;;;;15.00;13.50;;;;;29.05;37.64;100950.09;5043760;28;45267;-79
2021/07/23 00:27:13;;;;;;;;;13.75;12.50;;;;;29.06;37.36;100959.88;5060640;28;45372;-79
2021/07/23 00:29:39;;;;;;;;;15.75;14.25;;;;;29.06;37.34;100954.50;5060638;28;45249;-79
2021/07/23 00:32:05;;;;;;;;;18.75;16.25;;;;;29.06;37.76;100954.50;5061522;28;45469;-79
2021/07/23 00:34:30;;;;;;;;;17.00;14.25;;;;;29.05;37.54;100950.09;5026999;28;46052;-79
2021/07/23 00:36:56;;;;;;;;;15.25;14.75;;;;;29.05;37.69;100950.09;5026208;28;66496;-79
2021/07/23 00:39:21;;;;;;;;;14.00;14.00;;;;;29.08;37.74;100944.50;5043173;28;54013;-79
2021/07/23 00:41:46;;;;;;;;;16.50;14.75;;;;;29.09;37.38;100937.31;5060314;28;45319;-79
2021/07/23 00:44:12;;;;;;;;;15.25;14.00;;;;;29.02;37.59;100949.41;5059631;28;55207;-78
2021/07/23 00:46:37;;;;;;;;;14.50;14.25;;;;;28.93;37.29;100938.31;5060260;28;46504;-79
2021/07/23 00:49:03;;;;;;;;;18.50;13.50;;;;;28.91;37.44;100950.13;5059456;28;67492;-79
2021/07/23 00:51:28;;;;;;;;;13.50;11.75;;;;;28.86;38.11;100936.97;5076890;28;45456;-78
2021/07/23 00:53:54;;;;;;;;;15.00;13.75;;;;;28.87;37.21;100945.88;5026551;28;45386;-79
2021/07/23 00:56:19;;;;;;;;;14.75;13.25;;;;;28.81;37.45;100938.19;5042693;28;62445;-79
2021/07/23 00:58:44;;;;;;;;;15.00;12.00;;;;;28.79;37.63;100932.94;5043293;28;45385;-79
2021/07/23 01:01:10;;;;;;;;;16.25;12.00;;;;;28.82;37.41;100931.84;5059851;28;51923;-79
2021/07/23 01:03:36;;;;;;;;;14.75;14.25;;;;;28.85;37.54;100929.00;5059799;28;47063;-78
2021/07/23 01:06:01;;;;;;;;;15.00;12.25;;;;;28.86;37.96;100926.22;5061165;28;45286;-79
2021/07/23 01:08:27;;;;;;;;;13.75;12.75;;;;;28.88;37.70;100918.91;5042388;28;64802;-79
2021/07/23 01:10:52;;;;;;;;;14.00;13.25;;;;;28.89;38.03;100917.97;5061037;28;46009;-79
2021/07/23 01:13:18;;;;;;;;;14.75;13.50;;;;;28.89;38.07;100911.69;5060710;28;45262;-79
2021/07/23 01:15:43;;;;;;;;;13.00;11.75;;;;;28.83;37.40;100917.47;5061288;28;45850;-79
2021/07/23 01:18:09;;;;;;;;;13.25;12.50;;;;;28.75;37.55;100919.78;5058840;28;61575;-78
2021/07/23 01:20:34;;;;;;;;;16.25;14.00;;;;;28.72;38.25;100918.16;5041999;28;46515;-79
2021/07/23 01:23:00;;;;;;;;;13.50;13.50;;;;;28.72;37.79;100912.78;5059580;28;45365;-79
2021/07/23 01:25:26;;;;;;;;;14.00;14.00;;;;;28.73;37.78;100914.50;5043036;28;45401;-78
2021/07/23 01:27:52;;;;;;;;;12.25;12.25;;;;;28.70;37.69;100918.25;5059534;28;45655;-79
2021/07/23 01:30:18;;;;;;;;;13.25;12.25;;;;;28.62;37.66;100904.44;5059448;28;46190;-79
2021/07/23 01:32:43;;;;;;;;;12.25;11.75;;;;;28.66;38.37;100914.03;5060413;28;45439;-78
2021/07/23 01:35:10;;;;;;;;;12.75;12.00;;;;;28.65;38.13;100904.25;5042111;28;62492;-79
2021/07/23 01:37:35;;;;;;;;;12.00;11.50;;;;;28.61;38.33;100907.25;5026031;28;45528;-78
2021/07/23 01:40:00;;;;;;;;;11.75;11.00;;;;;28.63;38.03;100906.19;5060213;28;66283;-78
2021/07/23 01:42:29;;;;;;;;;16.50;14.50;;;;;28.61;38.53;100907.25;5059226;28;45251;-78
2021/07/23 01:44:55;;;;;;;;;13.00;12.00;;;;;28.66;38.56;100905.97;5060897;28;45364;-79
2021/07/23 01:47:20;;;;;;;;;19.00;14.25;;;;;28.68;37.89;100908.59;5076079;28;45342;-78
2021/07/23 01:49:46;;;;;;;;;15.00;13.25;;;;;28.69;38.15;100902.25;5059143;28;46975;-79
2021/07/23 01:52:11;;;;;;;;;13.00;12.25;;;;;28.66;38.33;100900.59;5041516;28;62892;-79
2021/07/23 01:54:36;;;;;;;;;14.00;13.25;;;;;28.69;38.07;100897.75;5058681;28;58534;-79
2021/07/23 01:57:03;;;;;;;;;17.00;13.25;;;;;28.71;38.48;100895.81;5059133;28;45481;-78
2021/07/23 01:59:28;;;;;;;;;14.25;12.75;;;;;28.73;37.45;100896.56;5059074;28;45434;-78
2021/07/23 02:01:56;;;;;;;;;14.50;14.00;;;;;28.73;38.02;100895.69;5041571;28;58724;-78
2021/07/23 02:04:21;;;;;;;;;13.50;11.00;;;;;28.69;37.86;100895.06;5026123;28;45232;-79
2021/07/23 02:06:47;;;;;;;;;18.25;16.25;;;;;28.71;37.37;100894.94;5058488;28;58895;-78
2021/07/23 02:09:12;;;;;;;;;17.25;11.75;;;;;28.65;38.18;100906.06;5058884;28;47438;-79
2021/07/23 02:11:38;;;;;;;;;16.75;14.75;;;;;28.66;37.70;100899.72;5058134;28;67821;-78
2021/07/23 02:14:06;;;;;;;;;16.50;16.50;;;;;28.67;37.67;100893.44;5025209;28;49028;-79
2021/07/23 02:16:32;;;;;;;;;13.25;12.50;;;;;28.69;37.99;100900.41;5042270;28;45938;-79
2021/07/23 02:18:57;;;;;;;;;14.00;14.00;;;;;28.68;37.87;100895.16;5075705;28;45356;-79
2021/07/23 02:21:22;;;;;;;;;18.75;18.50;;;;;28.58;38.14;100891.31;5092339;27;49115;-79
2021/07/23 02:23:48;;;;;;;;;15.75;15.25;;;;;28.58;38.20;100888.63;5058149;28;64448;-79
2021/07/23 02:26:20;;;;;;;;;15.25;14.00;;;;;28.60;38.47;100892.94;5059418;28;60014;-79
2021/07/23 02:28:46;;;;;;;;;19.75;16.25;;;;;28.61;38.51;100885.75;5058602;28;46214;-79
2021/07/23 02:31:11;;;;;;;;;19.25;16.25;;;;;28.62;38.00;100887.47;5061715;28;45308;-78
2021/07/23 02:33:36;;;;;;;;;14.50;11.50;;;;;28.56;38.54;100886.03;5064733;28;53768;-79
2021/07/23 02:36:02;;;;;;;;;14.50;13.75;;;;;28.57;38.13;100881.53;5048573;28;45380;-78
2021/07/23 02:38:28;;;;;;;;;17.00;16.00;;;;;28.61;38.03;100883.94;5048670;28;46315;-79
2021/07/23 02:40:55;;;;;;;;;19.00;17.50;;;;;28.65;38.61;100888.13;5066179;28;51075;-78
2021/07/23 02:43:20;;;;;;;;;16.75;15.25;;;;;28.65;38.01;100879.22;5066678;28;45385;-79
2021/07/23 02:45:45;;;;;;;;;16.00;13.25;;;;;28.65;38.41;100881.91;5066764;28;45405;-79
2021/07/23 02:48:11;;;;;;;;;16.00;13.00;;;;;28.65;38.10;100877.38;5047327;28;67743;-79
2021/07/23 02:50:36;;;;;;;;;18.00;15.25;;;;;28.61;38.29;100875.00;5048324;28;45805;-78
2021/07/23 02:53:03;;;;;;;;;14.00;11.25;;;;;28.65;38.01;100880.06;5048511;28;45283;-78
2021/07/23 02:55:28;;;;;;;;;15.00;15.00;;;;;28.65;38.41;100872.00;5048462;28;46503;-78
2021/07/23 02:57:53;;;;;;;;;14.00;14.00;;;;;28.65;38.05;100863.97;5031417;28;48100;-79
2021/07/23 03:00:19;;;;;;;;;15.00;13.25;;;;;28.68;38.06;100863.78;5047925;28;48672;-78
2021/07/23 03:02:44;;;;;;;;;14.00;12.25;;;;;28.70;38.26;100858.31;5065178;28;45221;-78
2021/07/23 03:05:10;;;;;;;;;17.50;15.75;;;;;28.70;38.58;100863.69;5047760;28;47841;-78
2021/07/23 03:07:35;;;;;;;;;17.25;15.50;;;;;28.71;38.14;100860.88;5048002;28;48106;-78
2021/07/23 03:10:01;;;;;;;;;17.00;17.00;;;;;28.68;38.43;100857.56;5047292;28;65524;-78
2021/07/23 03:12:26;;;;;;;;;18.25;14.50;;;;;28.60;38.45;100858.03;5064896;28;45448;-79
2021/07/23 03:14:52;;;;;;;;;14.75;14.00;;;;;28.59;38.58;100855.47;5064869;28;45698;-79
2021/07/23 03:17:17;;;;;;;;;15.25;13.50;;;;;28.54;38.20;100862.94;5064669;28;47702;-78
2021/07/23 03:19:43;;;;;;;;;15.50;14.50;;;;;28.55;38.53;100852.09;5046960;28;70192;-78
2021/07/23 03:22:08;;;;;;;;;15.00;14.25;;;;;28.58;38.75;100856.38;5064227;28;64043;-78
2021/07/23 03:24:34;;;;;;;;;17.75;16.50;;;;;28.58;38.19;100848.34;5047094;28;68156;-79
2021/07/23 03:26:59;;;;;;;;;18.00;15.75;;;;;28.61;37.94;100857.06;5047824;28;47048;-78
2021/07/23 03:29:25;;;;;;;;;17.50;14.75;;;;;28.62;38.51;100853.44;5065358;28;54140;-79
2021/07/23 03:31:50;;;;;;;;;12.75;12.50;;;;;28.60;38.18;100847.28;5064186;28;56577;-78
2021/07/23 03:34:15;;;;;;;;;14.75;14.50;;;;;28.62;38.35;100849.88;5047033;28;63411;-79
2021/07/23 03:36:41;;;;;;;;;13.75;12.75;;;;;28.62;38.59;100852.56;5063966;28;68178;-78
2021/07/23 03:39:06;;;;;;;;;19.50;16.00;;;;;28.61;37.94;100846.34;5047978;28;47144;-78
2021/07/23 03:41:32;;;;;;;;;16.00;14.00;;;;;28.63;38.29;100852.47;5047881;28;50258;-79
2021/07/23 03:43:57;;;;;;;;;15.25;14.75;;;;;28.61;38.53;100838.28;5060123;28;60379;-78
2021/07/23 03:46:22;;;;;;;;;13.50;12.75;;;;;28.63;38.69;100841.72;5044431;28;45209;-79
2021/07/23 03:48:48;;;;;;;;;15.50;13.75;;;;;28.62;38.62;100828.38;5044632;28;45244;-79
2021/07/23 03:51:13;;;;;;;;;13.50;13.25;;;;;28.62;38.74;100823.03;5060547;28;56573;-78
2021/07/23 03:53:39;;;;;;;;;18.00;16.50;;;;;28.60;38.23;100811.53;5062200;28;45492;-78
2021/07/23 03:56:05;;;;;;;;;17.25;14.75;;;;;28.60;38.14;100804.31;5078160;28;45271;-78
2021/07/23 03:58:30;;;;;;;;;18.25;16.00;;;;;28.57;38.77;100799.13;5062217;28;45356;-78
2021/07/23 04:00:56;;;;;;;;;18.25;15.75;;;;;28.55;38.76;100794.84;5077600;28;55454;-78
2021/07/23 04:03:21;;;;;;;;;17.00;15.25;;;;;28.54;38.16;100795.81;5077662;28;45346;-78
2021/07/23 04:05:47;;;;;;;;;18.00;14.50;;;;;28.49;38.66;100785.34;5061251;28;62938;-78
2021/07/23 04:08:12;;;;;;;;;14.50;14.00;;;;;28.51;38.83;100791.50;5060814;28;45344;-78
2021/07/23 04:10:38;;;;;;;;;17.50;15.00;;;;;28.50;38.57;100787.09;5062331;28;45293;-78
2021/07/23 04:13:11;;;;;;;;;19.25;16.50;;;;;28.47;38.19;100789.97;5061740;28;45464;-78
2021/07/23 04:15:39;;;;;;;;;16.25;15.25;;;;;28.46;38.43;100793.59;5060851;28;45480;-78
2021/07/23 04:18:13;;;;;;;;;18.50;16.50;;;;;28.37;38.63;100799.56;5060362;28;45356;-78
2021/07/23 04:20:42;;;;;;;;;15.75;15.50;;;;;28.40;39.02;100807.41;5061040;28;45335;-78
2021/07/23 04:23:10;;;;;;;;;16.75;16.00;;;;;28.34;38.59;100789.91;5060417;28;45462;-78
2021/07/23 04:25:38;;;;;;;;;19.50;17.50;;;;;28.26;39.26;100770.69;5060655;28;45508;-78
2021/07/23 04:28:13;;;;;;;;;20.50;16.25;;;;;28.39;39.06;100795.81;5027216;28;45446;-78
2021/07/23 04:30:46;;;;;;;;;17.50;17.00;;;;;28.36;39.25;100787.97;5060928;28;45403;-78
2021/07/23 04:33:20;;;;;;;;;17.25;17.25;;;;;28.28;38.69;100771.47;5060059;28;45536;-78
2021/07/23 04:35:46;;;;;;;;;19.50;18.50;;;;;28.37;38.73;100786.16;5061646;28;45411;-78
2021/07/23 04:38:21;;;;;;;;;14.25;14.25;;;;;28.35;39.27;100777.34;5061228;28;54188;-78
2021/07/23 04:40:46;;;;;;;;;18.00;17.25;;;;;28.37;38.83;100780.78;5044133;28;45315;-78
2021/07/23 04:43:12;;;;;;;;;18.50;14.75;;;;;28.42;38.60;100778.66;5059307;28;67985;-78
2021/07/23 04:45:37;;;;;;;;;17.50;16.75;;;;;28.42;38.58;100779.53;5059561;28;63686;-78
2021/07/23 04:48:03;;;;;;;;;18.50;17.50;;;;;28.41;39.14;100787.69;5061377;28;45425;-78
2021/07/23 04:50:28;;;;;;;;;16.25;16.25;;;;;28.37;39.37;100787.00;5060552;28;45338;-78
2021/07/23 04:52:57;;;;;;;;;17.25;14.75;;;;;28.34;38.71;100792.59;5060653;28;57477;-78
2021/07/23 04:55:23;;;;;;;;;17.50;16.00;;;;;28.33;38.98;100784.63;5059955;28;46107;-79
2021/07/23 04:57:49;;;;;;;;;21.50;17.00;;;;;28.35;39.11;100788.06;5061536;28;45267;-83
2021/07/23 05:00:15;;;;;;;;;16.75;14.25;;;;;28.34;39.11;100791.72;5043995;28;45254;-87
2021/07/23 05:02:41;;;;;;;;;17.25;15.50;;;;;28.37;38.94;100799.56;5060653;28;45326;-89
2021/07/23 05:05:11;;;;;;;;;17.50;17.00;;;;;28.30;39.30;100788.34;5043672;28;47044;-88
2021/07/23 05:07:42;;;;;;;;;22.00;16.75;;;;;28.33;38.86;100795.38;5060670;28;45436;-87
2021/07/23 05:10:09;;;;;;;;;16.25;16.25;;;;;28.29;39.24;100775.91;5028168;28;45301;-86
2021/07/23 05:12:34;;;;;;;;;19.00;14.00;;;;;28.30;39.13;100763.34;5027036;28;45514;-89
2021/07/23 05:15:00;;;;;;;;;18.25;16.50;;;;;28.38;39.94;100783.34;5062144;28;62292;-88
2021/07/23 05:17:26;;;;;;;;;19.50;16.50;;;;;28.39;40.01;100784.22;5029157;28;46060;-82
2021/07/23 05:19:51;;;;;;;;;17.50;15.50;;;;;28.42;39.39;100781.34;5045086;28;45307;-78
2021/07/23 05:22:16;;;;;;;;;19.75;17.25;;;;;28.43;39.52;100777.72;5043224;28;59495;-85
2021/07/23 05:24:42;;;;;;;;;19.00;17.75;;;;;28.39;39.71;100768.09;5042971;28;46945;-79
2021/07/23 05:27:07;;;;;;;;;15.50;14.75;;;;;28.39;40.27;100779.72;5042916;28;45621;-76
2021/07/23 05:29:33;;;;;;;;;19.75;17.75;;;;;28.33;40.14;100758.66;5059676;28;45660;-84
2021/07/23 05:31:58;;;;;;;;;20.00;18.75;;;;;28.39;40.19;100778.84;5041435;28;45686;-81
2021/07/23 05:34:24;;;;;;;;;17.50;17.50;;;;;28.38;40.62;100772.63;5055127;28;74581;-76
2021/07/23 05:36:50;;;;;;;;;19.50;15.25;;;;;28.34;39.52;100770.25;5059400;28;45422;-77
2021/07/23 05:39:15;;;;;;;;;19.00;16.50;;;;;28.34;39.58;100775.63;5042908;28;45332;-85
2021/07/23 05:41:40;;;;;;;;;19.25;15.00;;;;;28.35;40.21;100778.19;5043134;28;45358;-77
2021/07/23 05:44:06;;;;;;;;;19.75;17.25;;;;;28.36;40.07;100784.44;5058528;28;61129;-78
2021/07/23 05:46:34;;;;;;;;;17.75;16.00;;;;;28.39;39.59;100778.84;5061109;28;61391;-76
2021/07/23 05:49:00;;;;;;;;;18.25;17.50;;;;;28.38;40.12;100772.63;5059245;28;45372;-72
2021/07/23 05:51:25;;;;;;;;;20.75;16.75;;;;;28.38;39.86;100772.63;5059232;28;45597;-76
2021/07/23 05:53:50;;;;;;;;;17.25;16.00;;;;;28.39;39.87;100771.66;5058491;28;66274;-78
2021/07/23 05:56:16;;;;;;;;;12.75;12.75;;;;;28.40;39.79;100773.38;5061251;28;45344;-76
2021/07/23 05:58:44;;;;;;;;;17.00;17.00;;;;;28.37;39.94;100757.47;5060211;28;45919;-74
2021/07/23 06:01:10;;;;;;;;;16.50;16.50;;;;;28.38;39.19;100766.38;5058925;28;45440;-75
2021/07/23 06:03:35;;;;;;;;;19.75;16.25;;;;;28.37;39.67;100759.31;5058213;28;61080;-75
2021/07/23 06:06:02;;;;;;;;;23.00;18.75;;;;;28.36;40.33;100749.53;5058391;28;45387;-85
2021/07/23 06:08:28;;;;;;;;;16.50;16.50;;;;;28.35;39.57;100743.28;5045085;28;45346;-91
2021/07/23 06:10:53;;;;;;;;;20.00;18.50;;;;;28.25;39.66;100723.34;5027252;28;45537;-91
2021/07/23 06:13:19;;;;;;;;;19.25;18.50;;;;;28.20;39.85;100736.19;5027738;28;47006;-92
2021/07/23 06:15:44;;;;;;;;;17.00;17.00;;;;;28.09;39.97;100733.34;5029026;28;45360;-92
2021/07/23 06:18:09;;;;;;;;;19.25;17.75;;;;;27.94;39.42;100707.50;5061154;28;45416;-93
2021/07/23 06:20:35;;;;;;;;;19.00;16.50;;;;;27.97;40.25;100726.06;5028094;28;45705;-92
2021/07/23 06:23:00;;;;;;;;;25.50;20.75;;;;;27.99;39.59;100730.41;5065038;28;47037;-91
2021/07/23 06:25:26;;;;;;;;;21.00;21.00;;;;;27.86;39.65;100711.50;5047921;28;54183;-92
2021/07/23 06:27:51;;;;;;;;;18.00;17.50;;;;;27.75;39.94;100707.78;5032778;28;45473;-89
2021/07/23 06:30:17;;;;;;;;;18.00;16.75;;;;;27.78;39.91;100712.94;5049897;28;46083;-90
2021/07/23 06:32:42;;;;;;;;;19.75;19.00;;;;;27.79;40.29;100702.13;5029082;28;47018;-89
2021/07/23 06:35:08;;;;;;;;;21.75;20.25;;;;;27.86;39.38;100714.19;5064385;28;45237;-90
2021/07/23 06:37:34;;;;;;;;;23.50;20.50;;;;;27.86;39.76;100707.97;5062476;28;45192;-87
2021/07/23 06:39:59;;;;;;;;;22.75;22.75;;;;;27.87;39.53;100718.59;5059990;28;45493;-87
2021/07/23 06:42:25;;;;;;;;;21.00;20.50;;;;;27.77;39.63;100704.03;5041712;28;45200;-87
2021/07/23 06:44:51;;;;;;;;;20.00;18.75;;;;;27.84;40.01;100712.56;5026042;28;45336;-88
2021/07/23 06:47:17;;;;;;;;;21.75;21.25;;;;;27.91;40.25;100713.91;5042329;28;45489;-89
2021/07/23 06:49:42;;;;;;;;;20.00;19.00;;;;;28.01;40.28;100716.88;5026250;28;45537;-89
2021/07/23 06:52:08;;;;;;;;;20.50;18.75;;;;;28.00;39.86;100707.97;5038946;28;45482;-90
2021/07/23 06:54:35;;;;;;;;;21.75;21.75;;;;;27.99;39.76;100700.03;5031287;28;45427;-81
2021/07/23 06:57:03;;;;;;;;;19.50;18.00;;;;;28.01;39.44;100704.31;5059071;28;45323;-76
2021/07/23 06:59:29;;;;;;;;;23.50;20.75;;;;;28.10;39.79;100717.16;5058185;28;45834;-77
2021/07/23 07:01:55;;;;;;;;;20.75;19.75;;;;;28.10;38.95;100709.09;5058223;28;46401;-77
2021/07/23 07:04:20;;;;;;;;;23.75;20.75;;;;;28.10;39.27;100708.22;5058338;28;45338;-78
2021/07/23 07:06:46;;;;;;;;;23.75;21.50;;;;;28.12;39.94;100709.00;5058420;28;45653;-77
2021/07/23 07:09:11;;;;;;;;;21.00;20.50;;;;;28.11;39.99;100704.59;5058007;28;50812;-78
2021/07/23 07:11:37;;;;;;;;;23.25;21.00;;;;;28.11;39.30;100700.09;5059318;28;45432;-78
2021/07/23 07:14:02;;;;;;;;;20.00;17.75;;;;;28.07;40.24;100686.97;5057925;28;45583;-78
2021/07/23 07:16:27;;;;;;;;;23.50;22.25;;;;;28.17;39.11;100685.41;5049592;28;45625;-72
2021/07/23 07:18:53;;;;;;;;;23.00;21.00;;;;;28.17;39.52;100678.22;5058158;28;50099;-78
2021/07/23 07:21:18;;;;;;;;;23.25;20.75;;;;;28.25;39.47;100691.16;5061134;28;59298;-79
2021/07/23 07:23:44;;;;;;;;;21.25;19.50;;;;;28.24;39.81;100686.75;5059513;28;59626;-78
2021/07/23 07:26:10;;;;;;;;;20.00;17.50;;;;;28.27;39.26;100689.22;5057459;28;45375;-73
2021/07/23 07:28:38;;;;;;;;;22.75;21.50;;;;;28.26;38.92;100697.38;5060870;28;45449;-77
2021/07/23 07:31:05;;;;;;;;;25.50;23.50;;;;;28.24;39.42;100702.00;5034340;28;46574;-78
2021/07/23 07:33:31;;;;;;;;;28.25;25.00;;;;;28.21;39.11;100702.16;5045415;28;45397;-83
2021/07/23 07:35:57;;;;;;;;;20.00;18.00;;;;;28.16;39.11;100694.44;5061748;28;45483;-81
2021/07/23 07:38:22;;;;;;;;;23.75;19.75;;;;;28.16;39.01;100697.13;5045372;28;45497;-84
2021/07/23 07:40:48;;;;;;;;;22.00;20.00;;;;;28.22;39.76;100703.88;5044309;28;46874;-79
2021/07/23 07:43:13;;;;;;;;;21.50;20.00;;;;;28.24;39.88;100704.66;5060779;28;46678;-80
2021/07/23 07:45:39;;;;;;;;;23.25;19.75;;;;;28.28;40.43;100701.66;5027801;28;45784;-78
2021/07/23 07:48:04;;;;;;;;;22.50;21.00;;;;;28.38;40.54;100701.97;5060691;28;46368;-83
2021/07/23 07:50:30;;;;;;;;;17.75;17.50;;;;;28.37;40.35;100694.88;5021018;28;47555;-80
2021/07/23 07:52:56;;;;;;;;;23.25;21.75;;;;;28.43;40.72;100697.16;5036768;28;45849;-76
2021/07/23 07:55:21;;;;;;;;;21.25;19.75;;;;;28.45;40.24;100692.53;5045870;28;46311;-83
2021/07/23 07:57:46;;;;;;;;;20.25;19.50;;;;;28.54;41.03;100700.00;5017067;28;46134;-82
2021/07/23 08:00:12;;;;;;;;;21.25;20.75;;;;;28.52;41.07;100687.63;5037798;28;46294;-78
2021/07/23 08:02:37;;;;;;;;;24.00;21.00;;;;;28.59;40.32;100691.66;5039007;28;45230;-84
2021/07/23 08:05:03;;;;;;;;;21.50;19.25;;;;;28.64;39.94;100684.97;5043214;28;45661;-82
2021/07/23 08:07:32;;;;;;;;;21.50;19.25;;;;;28.66;40.90;100692.94;5061204;28;45287;-80
2021/07/23 08:10:01;;;;;;;;;21.00;20.50;;;;;28.65;40.14;100675.97;5044303;28;47326;-81
2021/07/23 08:12:26;;;;;;;;;22.00;22.00;;;;;28.73;40.67;100681.69;5062795;28;45252;-92
2021/07/23 08:14:52;;;;;;;;;20.25;20.00;;;;;28.76;40.16;100674.38;5031670;28;45784;-84
2021/07/23 08:17:17;;;;;;;;;21.25;19.00;;;;;28.81;40.25;100678.47;5046371;28;47972;-80
2021/07/23 08:19:43;;;;;;;;;19.75;19.25;;;;;28.77;40.73;100660.00;5060492;28;46162;-92
2021/07/23 08:22:08;;;;;;;;;21.25;21.25;;;;;28.85;40.50;100668.41;5028452;28;45816;-78
2021/07/23 08:24:34;;;;;;;;;23.00;19.50;;;;;28.87;40.07;100666.47;5061740;28;45402;-79
2021/07/23 08:26:59;;;;;;;;;21.00;19.00;;;;;28.83;39.66;100654.19;5043192;28;45461;-76
2021/07/23 08:29:25;;;;;;;;;22.00;19.25;;;;;28.86;39.95;100654.00;5051398;28;46476;-85
2021/07/23 08:31:50;;;;;;;;;19.25;19.25;;;;;28.90;40.19;100655.53;5042325;28;45468;-86
2021/07/23 08:34:16;;;;;;;;;22.50;19.75;;;;;28.90;39.34;100663.59;5061272;28;46481;-82
2021/07/23 08:36:41;;;;;;;;;21.00;19.00;;;;;28.90;39.46;100666.28;5043819;28;45572;-86
2021/07/23 08:39:07;;;;;;;;;24.25;21.25;;;;;28.92;39.14;100656.28;5042992;28;47319;-82
2021/07/23 08:41:35;;;;;;;;;23.25;20.00;;;;;28.97;39.41;100670.28;5059877;28;45500;-78
2021/07/23 08:44:03;;;;;;;;;21.25;19.25;;;;;28.92;39.15;100650.91;5076554;28;45271;-79
2021/07/23 08:46:29;;;;;;;;;22.25;20.50;;;;;28.89;40.19;100643.91;5060836;28;45227;-79
2021/07/23 08:48:55;;;;;;;;;23.75;20.75;;;;;28.94;39.49;100644.47;5060017;28;45297;-81
2021/07/23 08:51:21;;;;;;;;;26.25;21.25;;;;;28.92;39.66;100632.09;5048842;28;46443;-80
2021/07/23 08:53:46;;;;;;;;;20.50;19.50;;;;;28.96;39.39;100642.53;5049305;28;45624;-82
2021/07/23 08:56:12;;;;;;;;;19.25;18.50;;;;;29.02;38.76;100648.44;5059482;28;45307;-79
2021/07/23 08:58:37;;;;;;;;;21.50;21.50;;;;;29.02;38.84;100643.94;5042543;28;47631;-79
2021/07/23 09:01:03;;;;;;;;;25.00;24.25;;;;;29.05;39.08;100646.41;5024949;28;63821;-77
2021/07/23 09:03:28;;;;;;;;;22.00;19.75;;;;;29.03;39.28;100637.59;5059867;28;45496;-78
2021/07/23 09:05:54;;;;;;;;;19.50;16.75;;;;;29.04;39.28;100642.00;5033978;28;45326;-85
2021/07/23 09:08:20;;;;;;;;;24.00;19.75;;;;;29.05;38.88;100634.81;5033454;28;46404;-80
2021/07/23 09:10:46;;;;;;;;;25.75;23.50;;;;;29.02;37.68;100645.75;5059709;28;45371;-86
2021/07/23 09:13:22;;;;;;;;;22.00;20.25;;;;;28.92;38.42;100634.78;5025404;28;45424;-85
2021/07/23 09:15:47;;;;;;;;;18.75;18.00;;;;;28.96;37.81;100636.31;5046944;28;45790;-82
2021/07/23 09:18:33;;;;;;;;;23.75;19.50;;;;;28.95;38.26;100634.59;5042160;28;45254;-80
2021/07/23 09:20:59;;;;;;;;;22.50;21.00;;;;;28.83;38.19;100619.25;5031560;28;45418;-80
2021/07/23 09:23:32;;;;;;;;;20.25;20.25;;;;;28.85;38.47;100634.34;5044195;28;45498;-79
2021/07/23 09:26:04;;;;;;;;;24.00;20.25;;;;;28.84;38.43;100618.28;5054056;28;45504;-78
2021/07/23 09:28:33;;;;;;;;;22.25;18.75;;;;;28.78;38.11;100622.28;5058912;28;45501;-81
2021/07/23 09:31:03;;;;;;;;;21.50;20.25;;;;;28.78;37.73;100618.75;5025658;28;45316;-80
2021/07/23 09:33:31;;;;;;;;;19.25;18.50;;;;;28.73;37.72;100609.16;5059410;28;45544;-80
2021/07/23 09:35:58;;;;;;;;;20.25;19.00;;;;;28.76;38.39;100613.47;5042491;28;45648;-81
2021/07/23 09:38:24;;;;;;;;;17.00;17.00;;;;;28.71;37.92;100603.03;5042287;28;47478;-84
2021/07/23 09:40:49;;;;;;;;;22.75;19.25;;;;;28.73;37.82;100611.84;5058475;28;45285;-83
2021/07/23 09:43:35;;;;;;;;;20.50;20.50;;;;;28.67;38.21;100601.53;5061009;28;45342;-86
2021/07/23 09:46:21;;;;;;;;;22.25;21.50;;;;;28.70;37.60;100601.31;5045707;28;45677;-80
2021/07/23 09:48:47;;;;;;;;;27.75;22.00;;;;;28.66;37.97;100585.50;5025854;28;48123;-81
2021/07/23 09:51:12;;;;;;;;;27.00;23.25;;;;;28.73;37.97;100590.34;5055076;28;45428;-80
2021/07/23 09:53:38;;;;;;;;;23.25;21.25;;;;;28.75;37.87;100576.81;5053218;28;52398;-80
2021/07/23 09:56:12;;;;;;;;;22.25;20.00;;;;;28.69;38.38;100571.88;5058256;28;57362;-81
2021/07/23 09:58:42;;;;;;;;;21.25;19.75;;;;;28.73;38.11;100574.25;5054980;28;46210;-83
2021/07/23 10:01:09;;;;;;;;;19.75;17.75;;;;;28.70;37.93;100562.84;5058490;28;45333;-81
2021/07/23 10:03:42;;;;;;;;;22.75;22.25;;;;;28.75;38.53;100559.84;5024573;28;45275;-81
2021/07/23 10:06:14;;;;;;;;;26.25;21.25;;;;;28.79;38.24;100551.47;5023368;28;45533;-81
2021/07/23 10:08:40;;;;;;;;;23.75;21.25;;;;;28.82;38.41;100542.34;5056164;28;45456;-81
2021/07/23 10:11:07;;;;;;;;;22.50;21.25;;;;;28.82;37.78;100534.28;5041223;28;45390;-81
2021/07/23 10:13:35;;;;;;;;;18.00;18.00;;;;;28.78;37.66;100528.28;5058708;28;45442;-80
2021/07/23 10:16:00;;;;;;;;;23.25;20.25;;;;;28.85;38.61;100531.38;5038275;28;45296;-81
2021/07/23 10:18:25;;;;;;;;;21.50;21.25;;;;;28.82;38.66;100518.16;5058274;28;53666;-81
2021/07/23 10:20:51;;;;;;;;;21.50;19.50;;;;;28.83;38.21;100512.66;5058733;28;58080;-81
2021/07/23 10:23:21;;;;;;;;;23.75;21.50;;;;;28.84;38.40;100505.47;5057909;28;45513;-81
2021/07/23 10:25:49;;;;;;;;;22.50;21.50;;;;;28.84;38.06;100498.25;5058247;28;45888;-81
2021/07/23 10:28:40;;;;;;;;;23.00;21.00;;;;;28.90;37.99;100497.00;5059707;28;46223;-81
2021/07/23 10:31:32;;;;;;;;;20.50;18.75;;;;;28.92;38.17;100501.31;5070251;28;45235;-81
2021/07/23 10:34:01;;;;;;;;;19.25;18.00;;;;;28.88;38.24;100490.88;5059911;28;45330;-81
2021/07/23 10:36:27;;;;;;;;;24.50;23.75;;;;;28.93;38.55;100489.63;5041827;28;46060;-81
2021/07/23 10:39:04;;;;;;;;;21.75;20.50;;;;;28.95;38.87;100497.56;5059804;28;45464;-81
2021/07/23 10:41:33;;;;;;;;;23.00;21.50;;;;;28.96;38.40;100488.53;5059723;28;45200;-81
2021/07/23 10:43:58;;;;;;;;;22.50;22.50;;;;;28.98;38.97;100478.53;5058467;28;45420;-81
2021/07/23 10:46:42;;;;;;;;;20.00;18.50;;;;;29.00;38.93;100476.56;5057362;28;67297;-81
2021/07/23 10:49:07;;;;;;;;;23.50;21.75;;;;;29.00;38.83;100465.81;5058165;28;46465;-81
2021/07/23 10:51:48;;;;;;;;;26.75;25.50;;;;;28.98;38.77;100457.03;5060053;28;45420;-81
2021/07/23 10:54:14;;;;;;;;;23.25;21.25;;;;;28.99;38.07;100456.06;5062737;28;45288;-81
2021/07/23 10:57:10;;;;;;;;;22.50;21.00;;;;;29.04;37.92;100448.53;5062792;28;45254;-81
2021/07/23 10:59:39;;;;;;;;;24.00;21.25;;;;;29.06;38.26;100446.59;5063365;28;45440;-81
2021/07/23 11:02:10;;;;;;;;;20.00;19.00;;;;;29.07;38.07;100450.97;5063099;28;45314;-82
2021/07/23 11:04:36;;;;;;;;;23.75;21.00;;;;;29.07;38.40;100437.53;5061805;28;45380;-80
2021/07/23 11:07:02;;;;;;;;;21.00;18.25;;;;;29.04;38.19;100420.81;5061565;28;46094;-81